Skip Navigation Links Skip Navigation Links

Current Weather

Lynn Lake, Man., Lynn Lake, Man.

For information only: do not use for flight planning or navigation.
Latest weather
Observation time Friday, November 17, 2017 3:08 PM CST
Local time Friday, November 17, 2017 3:20 PM CST
Flight conditions Visual Meteorological Conditions
Winds
Wind direction West (270°)
Wind speed 14 mph
Wind gusting to 24 mph
Visibility 9 mi.
Sky condition
Ceiling 7,000 ft. overcast
Cloud layer few clouds 1,900 ft.
Cloud layer scattered clouds 3,800 ft.
Cloud layer overcast 7,000 ft.
Temperature 9°F
Dewpoint 5°F
Altimeter 29.44 in.Hg
Derived measurements
Relative humidity 85%
Wind chill -8°F
Density altitude -2568 ft.
Sea-level pressure 29.54 in.Hg
Remarks
Special weather observation.
Fully automated report.
METAR SPECI CYYL 172108Z AUTO 27012G21KT 9SM FEW019 SCT038 OVC070 M13/M15 A2944 RMK SLP003

Settings

Location code

InnerDrive.Weather 4.0.6144.1 Release CLR 4.0.30319.36366
Copyright ©2015 Inner Drive Technology. All rights reserved. Portions Copyright ©1986-2015 David Braverman.

Find weather

Site navigation


Skip Navigation Links

Place info

Page info

PayPal - The safer, easier way to pay online!

Return home.

Copyright ©2017 Inner Drive Technology. Purveyors of fine, hand-crafted computer software. Page printed 2017-11-17T21:20:02 UTC.